Tatum, Mississippi
Current Conditions -  °F | °C
As of 1:16 PM on Thursday 18 Dec 2014 (Local Time) from KMCB Reporting Station
Overcast Overcast  
Wind Chill: 60°   Ceiling: 2700
Heat Index: 60°   Visibility: 10mi
Dew Point: 47°   Wind: 0mph
Humidity: 62%   Direction: NA
Pressure: 30.12"   Gusts: NA
Location:  31.1819°N, 90.9008°W
Report Text: KMCB 181916Z AUTO 00000KT 10SM BKN027 OVC032 16/08 A3012 RMK AO2 T01560083
Loading
Personal Weather Stations






























Interactive Weather Map New forecast layout! Learn more

10-Day Weather Forecast

Advertisements
Track Severe Weather on mobile